Open Full Screen Window  High Contrast Mode
Wind Gusting 00 knots
03
April 21, 2018 8:51 PM EDT
Weather Information
Wind Direction
  020 °
Wind Speed
  03 kt (3 mph)
Wind Gust
  00 kt (0 mph)
Altimeter
30.38 in
Visibility
10 SM
Temperature
08° C
46° F
Dewpoint
-04° C
25° F
Humidity
43%
1hr Rain Fall
00.00 in.
24hr Rain Fall
00.00 in.
Sky Condition
Clear
VFR

METAR KPOV 220051Z AUTO 02003KT 10SM CLR 08/M04 A3038 RMK AO2 T00801036

*Background is not an actual portrayal of the airport.